createdAt,value
2018-03-28T00:00:16.162Z,23.77
2018-03-28T00:02:43.930Z,22.35
2018-03-28T00:05:11.697Z,12.90
2018-03-28T00:07:39.449Z,12.07
2018-03-28T00:10:07.210Z,14.40
2018-03-28T00:12:34.987Z,15.80
2018-03-28T00:15:02.726Z,11.63
2018-03-28T00:17:30.474Z,17.30
2018-03-28T00:19:58.673Z,18.83
2018-03-28T00:22:26.490Z,15.63
2018-03-28T00:24:54.268Z,14.95
2018-03-28T00:27:22.524Z,13.23
2018-03-28T00:29:50.328Z,13.07
2018-03-28T00:32:18.210Z,12.68
2018-03-28T00:34:46.145Z,12.30
2018-03-28T00:37:13.947Z,14.90
2018-03-28T00:39:42.123Z,9.43
2018-03-28T00:42:10.752Z,9.07
2018-03-28T00:44:38.630Z,10.35
2018-03-28T00:47:06.437Z,13.60
2018-03-28T00:49:34.182Z,12.02
2018-03-28T00:52:01.925Z,8.70
2018-03-28T00:54:29.679Z,16.17
2018-03-28T00:56:57.515Z,14.60
2018-03-28T00:59:25.289Z,11.10
2018-03-28T01:01:53.049Z,16.37
2018-03-28T01:04:25.045Z,9.68
2018-03-28T01:06:52.840Z,16.08
2018-03-28T01:09:21.012Z,17.33
2018-03-28T01:11:48.755Z,19.10
2018-03-28T01:14:16.559Z,20.83
2018-03-28T01:16:44.317Z,23.70
2018-03-28T01:19:12.062Z,10.90
2018-03-28T01:21:40.258Z,11.00
2018-03-28T01:24:08.066Z,11.15
2018-03-28T01:26:35.863Z,11.55
2018-03-28T01:29:04.000Z,17.75
2018-03-28T01:31:31.808Z,12.90
2018-03-28T01:33:59.603Z,9.15
2018-03-28T01:36:27.355Z,12.20
2018-03-28T01:38:55.144Z,14.60
2018-03-28T01:41:22.943Z,17.20
2018-03-28T01:43:50.694Z,11.47
2018-03-28T01:46:18.482Z,13.35
2018-03-28T01:48:46.199Z,12.00
2018-03-28T01:51:14.021Z,13.00
2018-03-28T01:53:42.198Z,10.43
2018-03-28T01:56:09.933Z,11.77
2018-03-28T01:58:37.713Z,8.30
2018-03-28T02:01:05.468Z,8.05
2018-03-28T02:03:33.259Z,10.45
2018-03-28T02:06:01.010Z,14.77
2018-03-28T02:08:28.828Z,6.50
2018-03-28T02:10:56.619Z,6.70
2018-03-28T02:13:24.417Z,11.45
2018-03-28T02:15:52.242Z,7.68
2018-03-28T02:18:20.051Z,6.55
2018-03-28T02:20:47.874Z,10.82
2018-03-28T02:23:15.790Z,11.82
2018-03-28T02:25:43.564Z,13.07
2018-03-28T02:28:11.728Z,13.43
2018-03-28T02:30:39.578Z,13.07
2018-03-28T02:33:07.369Z,6.95
2018-03-28T02:35:35.163Z,6.62
2018-03-28T02:38:03.043Z,12.77
2018-03-28T02:40:30.783Z,10.15
2018-03-28T02:42:58.648Z,4.93
2018-03-28T02:45:26.826Z,11.15
2018-03-28T02:47:54.616Z,9.32
2018-03-28T02:50:22.421Z,5.82
2018-03-28T02:52:50.198Z,5.93
2018-03-28T02:55:17.999Z,8.50
2018-03-28T02:57:45.859Z,8.68
2018-03-28T03:00:13.904Z,6.80
2018-03-28T03:02:41.743Z,10.90
2018-03-28T03:05:09.558Z,6.78
2018-03-28T03:07:37.677Z,5.75
2018-03-28T03:10:05.434Z,5.65
2018-03-28T03:12:33.227Z,4.28
2018-03-28T03:15:01.034Z,7.05
2018-03-28T03:17:28.977Z,5.68
2018-03-28T03:19:57.256Z,6.65
2018-03-28T03:22:25.463Z,8.10
2018-03-28T03:24:53.339Z,7.37
2018-03-28T03:27:21.079Z,4.80
2018-03-28T03:29:49.250Z,5.70
2018-03-28T03:32:17.378Z,4.70
2018-03-28T03:34:45.083Z,3.90
2018-03-28T03:37:12.878Z,4.97
2018-03-28T03:39:40.632Z,7.80
2018-03-28T03:42:08.352Z,5.12
2018-03-28T03:44:36.134Z,5.12
2018-03-28T03:47:04.299Z,5.12
2018-03-28T03:49:32.083Z,5.00
2018-03-28T03:51:59.816Z,6.80
2018-03-28T03:54:27.609Z,4.80
2018-03-28T03:56:55.338Z,5.00
2018-03-28T03:59:23.132Z,3.87
2018-03-28T04:01:50.880Z,4.70
2018-03-28T04:04:18.740Z,4.03
2018-03-28T04:06:46.515Z,6.80
2018-03-28T04:09:14.495Z,6.95
2018-03-28T04:11:42.296Z,5.22
2018-03-28T04:14:10.097Z,4.65
2018-03-28T04:16:37.854Z,4.70
2018-03-28T04:19:05.621Z,4.40
2018-03-28T04:21:33.403Z,4.27
2018-03-28T04:24:01.201Z,4.35
2018-03-28T04:26:29.419Z,3.10
2018-03-28T04:28:57.261Z,4.63
2018-03-28T04:31:25.052Z,4.40
2018-03-28T04:33:52.954Z,4.40
2018-03-28T04:36:20.780Z,3.87
2018-03-28T04:38:48.517Z,4.28
2018-03-28T04:41:16.302Z,5.78
2018-03-28T04:43:44.068Z,4.00
2018-03-28T04:46:11.803Z,4.47
2018-03-28T04:48:39.531Z,6.18
2018-03-28T04:51:07.312Z,7.12
2018-03-28T04:53:35.146Z,7.37
2018-03-28T04:56:02.854Z,9.23
2018-03-28T04:58:31.931Z,10.73
2018-03-28T05:00:59.661Z,9.75
2018-03-28T05:03:27.422Z,10.77
2018-03-28T05:05:55.194Z,11.32
2018-03-28T05:08:23.843Z,10.98
2018-03-28T05:10:51.589Z,8.07
2018-03-28T05:13:19.755Z,7.00
2018-03-28T05:15:49.781Z,13.27
2018-03-28T05:18:17.478Z,15.95
2018-03-28T05:20:45.233Z,16.50
2018-03-28T05:23:12.980Z,17.05
2018-03-28T05:25:40.703Z,16.27
2018-03-28T05:28:08.528Z,16.55
2018-03-28T05:30:36.336Z,16.57
2018-03-28T05:33:04.060Z,18.25
2018-03-28T05:35:31.824Z,20.23
2018-03-28T05:37:59.574Z,21.30
2018-03-28T05:40:27.282Z,17.87
2018-03-28T05:42:55.006Z,19.87
2018-03-28T05:45:22.794Z,20.65
2018-03-28T05:47:50.547Z,22.27
2018-03-28T05:50:18.373Z,11.43
2018-03-28T05:52:46.125Z,15.67
2018-03-28T05:55:13.906Z,16.97
2018-03-28T05:57:41.666Z,22.83
2018-03-28T06:00:09.852Z,20.48
2018-03-28T06:02:38.013Z,24.83
2018-03-28T06:05:05.770Z,25.88
2018-03-28T06:07:33.624Z,20.63
2018-03-28T06:10:01.347Z,18.50
2018-03-28T06:12:29.166Z,26.23
2018-03-28T06:14:56.889Z,29.90
2018-03-28T06:17:24.651Z,32.45
2018-03-28T06:19:52.438Z,31.95
2018-03-28T06:22:20.277Z,25.70
2018-03-28T06:24:47.988Z,22.90
2018-03-28T06:27:15.790Z,26.90
2018-03-28T06:29:43.959Z,36.45
2018-03-28T06:32:12.279Z,38.88
2018-03-28T06:34:40.067Z,38.95
2018-03-28T06:37:07.798Z,33.30
2018-03-28T06:39:35.550Z,30.55
2018-03-28T06:42:03.352Z,35.33
2018-03-28T06:44:31.071Z,21.08
2018-03-28T06:46:58.773Z,43.95
2018-03-28T06:49:26.531Z,42.60
2018-03-28T06:51:54.335Z,46.00
2018-03-28T06:54:22.200Z,42.97
2018-03-28T06:56:50.406Z,42.42
2018-03-28T06:59:18.439Z,40.95
2018-03-28T07:01:46.302Z,43.25
2018-03-28T07:04:14.131Z,40.03
2018-03-28T07:06:42.332Z,43.42
2018-03-28T07:09:10.564Z,44.65
2018-03-28T07:11:38.929Z,43.47
2018-03-28T07:14:06.800Z,32.92
2018-03-28T07:16:35.207Z,46.23
2018-03-28T07:19:03.151Z,41.13
2018-03-28T07:21:31.007Z,37.93
2018-03-28T07:23:59.559Z,45.33
2018-03-28T07:26:27.925Z,45.37
2018-03-28T07:28:55.691Z,44.23
2018-03-28T07:31:23.878Z,47.00
2018-03-28T07:33:51.617Z,33.80
2018-03-28T07:36:19.386Z,43.97
2018-03-28T07:38:47.283Z,48.87
2018-03-28T07:41:15.058Z,45.00
2018-03-28T07:43:43.050Z,42.93
2018-03-28T07:46:11.312Z,44.20
2018-03-28T07:48:39.107Z,44.43
2018-03-28T07:51:06.859Z,41.50
2018-03-28T07:53:34.684Z,41.50
2018-03-28T07:56:02.482Z,35.00
2018-03-28T07:58:30.657Z,43.13
2018-03-28T08:00:58.354Z,45.60
2018-03-28T08:03:26.067Z,36.77
2018-03-28T08:05:53.957Z,43.70
2018-03-28T08:08:21.935Z,44.37
2018-03-28T08:10:49.763Z,46.70
2018-03-28T08:13:17.587Z,46.87
2018-03-28T08:15:45.295Z,40.07
2018-03-28T08:18:13.185Z,41.27
2018-03-28T08:20:40.906Z,42.37
2018-03-28T08:23:08.851Z,35.70
2018-03-28T08:25:36.618Z,40.87
2018-03-28T08:28:07.675Z,37.63
2018-03-28T08:30:35.464Z,43.20
2018-03-28T08:33:03.138Z,38.30
2018-03-28T08:35:31.354Z,40.83
2018-03-28T08:37:59.110Z,36.20
2018-03-28T08:40:26.937Z,39.40
2018-03-28T08:42:54.658Z,42.37
2018-03-28T08:45:22.482Z,34.57
2018-03-28T08:47:50.651Z,41.23
2018-03-28T08:50:18.390Z,45.20
2018-03-28T08:52:46.136Z,33.77
2018-03-28T08:55:13.863Z,39.80
2018-03-28T08:57:42.026Z,41.20
2018-03-28T09:00:14.162Z,35.60
2018-03-28T09:02:41.950Z,39.70
2018-03-28T09:05:09.732Z,32.20
2018-03-28T09:07:37.467Z,37.80
2018-03-28T09:10:05.174Z,40.30
2018-03-28T09:12:32.932Z,39.37
2018-03-28T09:15:01.149Z,39.80
2018-03-28T09:17:29.026Z,35.20
2018-03-28T09:19:56.947Z,37.63
2018-03-28T09:22:25.030Z,34.13
2018-03-28T09:24:53.075Z,38.97
2018-03-28T09:27:20.852Z,39.60
2018-03-28T09:29:49.061Z,38.83
2018-03-28T09:32:16.972Z,30.40
2018-03-28T09:34:44.726Z,39.53
2018-03-28T09:37:12.574Z,35.93
2018-03-28T09:39:40.418Z,32.10
2018-03-28T09:42:08.271Z,33.30
2018-03-28T09:44:36.134Z,35.23
2018-03-28T09:47:04.254Z,28.67
2018-03-28T09:49:32.036Z,33.10
2018-03-28T09:51:59.816Z,25.63
2018-03-28T09:54:27.619Z,28.50
2018-03-28T09:56:55.332Z,28.00
2018-03-28T09:59:23.069Z,30.30
2018-03-28T10:01:50.797Z,31.53
2018-03-28T10:04:18.509Z,27.03
2018-03-28T10:06:46.337Z,27.87
2018-03-28T10:09:14.482Z,27.97
2018-03-28T10:11:42.638Z,28.53
2018-03-28T10:14:10.855Z,28.33
2018-03-28T10:16:38.566Z,25.73
2018-03-28T10:19:06.334Z,28.13
2018-03-28T10:21:34.192Z,28.50
2018-03-28T10:24:01.961Z,27.10
2018-03-28T10:26:29.763Z,28.40
2018-03-28T10:28:57.636Z,28.20
2018-03-28T10:31:25.392Z,23.77
2018-03-28T10:33:53.553Z,23.00
2018-03-28T10:36:21.473Z,25.43
2018-03-28T10:38:49.162Z,24.30
2018-03-28T10:41:16.892Z,25.00
2018-03-28T10:43:44.621Z,22.13
2018-03-28T10:46:12.791Z,28.20
2018-03-28T10:48:40.984Z,27.90
2018-03-28T10:51:08.731Z,24.77
2018-03-28T10:53:36.909Z,26.53
2018-03-28T10:56:04.631Z,26.83
2018-03-28T10:58:32.381Z,25.03
2018-03-28T11:01:00.140Z,25.67
2018-03-28T11:03:27.968Z,22.60
2018-03-28T11:05:55.690Z,24.13
2018-03-28T11:08:23.455Z,22.37
2018-03-28T11:10:51.181Z,22.23
2018-03-28T11:13:19.019Z,21.93
2018-03-28T11:15:46.726Z,21.33
2018-03-28T11:18:14.497Z,22.40
2018-03-28T11:20:42.258Z,23.57
2018-03-28T11:23:10.035Z,20.80
2018-03-28T11:25:37.825Z,20.57
2018-03-28T11:28:05.627Z,18.93
2018-03-28T11:30:33.743Z,21.93
2018-03-28T11:33:01.518Z,19.93
2018-03-28T11:35:29.346Z,19.70
2018-03-28T11:37:57.110Z,20.90
2018-03-28T11:40:25.464Z,18.33
2018-03-28T11:42:53.238Z,19.63
2018-03-28T11:45:21.114Z,16.60
2018-03-28T11:47:48.939Z,13.90
2018-03-28T11:50:16.773Z,11.97
2018-03-28T11:52:44.513Z,11.63
2018-03-28T11:58:49.503Z,9.80
2018-03-28T12:01:17.462Z,10.77
2018-03-28T12:03:49.169Z,9.13
2018-03-28T12:06:18.320Z,9.73
2018-03-28T12:08:46.875Z,10.00
2018-03-28T12:11:14.872Z,8.57
2018-03-28T12:13:42.695Z,11.00
2018-03-28T12:16:10.902Z,10.07
2018-03-28T12:18:38.614Z,11.30
2018-03-28T12:21:06.331Z,10.87
2018-03-28T12:23:34.062Z,10.83
2018-03-28T12:26:01.846Z,11.03
2018-03-28T12:28:29.583Z,11.50
2018-03-28T12:30:57.378Z,11.10
2018-03-28T12:33:25.511Z,12.70
2018-03-28T12:35:53.368Z,10.60
2018-03-28T12:38:21.114Z,10.40
2018-03-28T12:40:48.952Z,10.50
2018-03-28T12:43:16.736Z,10.30
2018-03-28T12:45:44.613Z,10.17
2018-03-28T12:48:12.345Z,10.93
2018-03-28T12:50:40.092Z,10.93
2018-03-28T12:53:08.258Z,10.03
2018-03-28T12:55:36.173Z,10.80
2018-03-28T12:58:03.776Z,12.40
2018-03-28T13:00:31.516Z,12.00
2018-03-28T13:02:59.306Z,10.00
2018-03-28T13:05:27.094Z,9.30
2018-03-28T13:07:55.357Z,10.80
2018-03-28T13:10:23.015Z,9.70
2018-03-28T13:12:50.808Z,9.80
2018-03-28T13:15:18.995Z,10.33
2018-03-28T13:17:46.708Z,11.13
2018-03-28T13:20:14.463Z,9.10
2018-03-28T13:22:42.217Z,9.47
2018-03-28T13:25:09.949Z,11.73
2018-03-28T13:27:38.121Z,9.57
2018-03-28T13:30:05.955Z,9.73
2018-03-28T13:32:33.684Z,8.93
2018-03-28T13:35:01.438Z,10.60
2018-03-28T13:37:29.951Z,8.90
2018-03-28T13:39:57.693Z,8.10
2018-03-28T13:42:26.000Z,10.00
2018-03-28T13:44:53.892Z,14.57
2018-03-28T13:47:21.714Z,17.33
2018-03-28T13:49:49.503Z,14.47
2018-03-28T13:52:17.804Z,10.70
2018-03-28T13:54:45.912Z,11.33
2018-03-28T13:57:13.713Z,19.83
2018-03-28T13:59:41.470Z,12.83
2018-03-28T14:02:09.341Z,10.77
2018-03-28T14:04:37.115Z,42.13
2018-03-28T14:07:04.942Z,14.57
2018-03-28T14:09:33.881Z,15.77
2018-03-28T14:12:02.106Z,15.97
2018-03-28T14:14:29.890Z,15.27
2018-03-28T14:16:57.657Z,36.53
2018-03-28T14:19:25.446Z,20.60
2018-03-28T14:21:53.238Z,18.90
2018-03-28T14:24:20.947Z,14.90
2018-03-28T14:26:48.709Z,12.50
2018-03-28T14:29:16.441Z,17.13
2018-03-28T14:31:44.182Z,15.37
2018-03-28T14:34:11.914Z,31.67
2018-03-28T14:36:39.694Z,17.17
2018-03-28T14:39:07.435Z,16.70
2018-03-28T14:41:35.251Z,19.83
2018-03-28T14:44:03.474Z,17.73
2018-03-28T14:46:31.238Z,15.67
2018-03-28T14:48:59.026Z,15.93
2018-03-28T14:51:27.194Z,21.70
2018-03-28T14:53:56.954Z,15.40
2018-03-28T14:56:24.791Z,18.10
2018-03-28T14:58:52.543Z,22.40
2018-03-28T15:01:20.313Z,15.63
2018-03-28T15:03:49.999Z,14.90
2018-03-28T15:08:50.102Z,16.23
2018-03-28T15:11:23.028Z,15.80
2018-03-28T15:13:51.428Z,14.70
2018-03-28T15:16:19.992Z,14.90
2018-03-28T15:18:47.746Z,17.30
2018-03-28T15:21:15.736Z,15.00
2018-03-28T15:23:43.742Z,15.97
2018-03-28T15:26:11.941Z,15.90
2018-03-28T15:28:40.661Z,15.10
2018-03-28T15:31:08.464Z,16.40
2018-03-28T15:33:39.596Z,15.83
2018-03-28T15:36:07.782Z,14.60
2018-03-28T15:38:37.745Z,12.03
2018-03-28T15:41:06.129Z,13.57
2018-03-28T15:43:34.507Z,14.33
2018-03-28T15:46:02.316Z,11.87
2018-03-28T15:48:33.799Z,12.63
2018-03-28T15:51:02.774Z,13.40
2018-03-28T15:53:32.493Z,13.27
2018-03-28T15:56:01.184Z,13.13
2018-03-28T15:58:41.209Z,13.27
2018-03-28T16:01:10.244Z,15.07
2018-03-28T16:03:40.016Z,14.03
2018-03-28T16:06:08.983Z,12.17
2018-03-28T16:08:36.970Z,13.67
2018-03-28T16:11:05.018Z,15.10
2018-03-28T16:13:33.196Z,14.47
2018-03-28T16:16:01.046Z,13.23
2018-03-28T16:18:33.275Z,13.33
2018-03-28T16:21:01.351Z,12.97
2018-03-28T16:23:29.883Z,16.03
2018-03-28T16:26:01.328Z,12.23
2018-03-28T16:28:29.514Z,16.03
2018-03-28T16:30:57.357Z,13.00
2018-03-28T16:33:26.064Z,14.70
2018-03-28T16:35:53.859Z,23.20
2018-03-28T16:38:21.686Z,17.50
2018-03-28T16:40:49.461Z,14.00
2018-03-28T16:43:17.321Z,20.73
2018-03-28T16:45:45.037Z,24.00
2018-03-28T16:48:12.865Z,26.50
2018-03-28T16:50:40.708Z,12.73
2018-03-28T16:53:08.455Z,15.20
2018-03-28T16:55:36.326Z,14.33
2018-03-28T16:58:04.200Z,14.40
2018-03-28T17:00:32.122Z,16.13
2018-03-28T17:02:59.892Z,15.37
2018-03-28T17:05:27.665Z,17.40
2018-03-28T17:07:55.453Z,15.93
2018-03-28T17:10:23.300Z,14.60
2018-03-28T17:12:51.092Z,13.90
2018-03-28T17:15:18.905Z,14.83
2018-03-28T17:17:46.656Z,16.17
2018-03-28T17:20:14.499Z,14.63
2018-03-28T17:22:42.279Z,12.80
2018-03-28T17:25:10.050Z,14.77
2018-03-28T17:27:40.900Z,14.70
2018-03-28T17:30:08.746Z,13.33
2018-03-28T17:32:36.910Z,14.90
2018-03-28T17:35:04.639Z,13.97
2018-03-28T17:37:32.527Z,14.47
2018-03-28T17:40:00.335Z,12.40
2018-03-28T17:42:28.127Z,13.93
2018-03-28T17:45:08.693Z,13.40
2018-03-28T17:47:36.475Z,10.53
2018-03-28T17:50:04.232Z,9.23
2018-03-28T17:55:28.050Z,8.60
2018-03-28T17:57:55.982Z,7.80
2018-03-28T18:00:35.368Z,6.67
2018-03-28T18:03:03.148Z,7.07
2018-03-28T18:05:30.860Z,6.70
2018-03-28T18:07:58.985Z,6.27
2018-03-28T18:10:26.774Z,6.13
2018-03-28T18:12:54.851Z,34.80
2018-03-28T18:15:22.774Z,13.80
2018-03-28T18:17:51.602Z,16.50
2018-03-28T18:20:19.469Z,9.70
2018-03-28T18:22:47.207Z,10.07
2018-03-28T18:25:15.087Z,8.57
2018-03-28T18:27:42.850Z,7.40
2018-03-28T18:30:10.774Z,4.00
2018-03-28T18:32:46.517Z,4.57
2018-03-28T18:38:05.315Z,4.43
2018-03-28T18:40:33.376Z,4.27
2018-03-28T18:43:01.621Z,4.17
2018-03-28T18:45:29.308Z,5.20
2018-03-28T18:47:57.123Z,5.67
2018-03-28T18:50:24.891Z,4.77
2018-03-28T18:52:53.186Z,5.70
2018-03-28T18:55:21.648Z,6.40
2018-03-28T18:57:50.252Z,6.80
2018-03-28T19:00:17.909Z,6.50
2018-03-28T19:02:51.607Z,7.20
2018-03-28T19:05:19.280Z,7.10
2018-03-28T19:07:46.987Z,7.50
2018-03-28T19:10:14.641Z,7.63
2018-03-28T19:12:42.368Z,7.93
2018-03-28T19:15:10.027Z,8.97
2018-03-28T19:17:37.700Z,12.90
2018-03-28T19:20:05.366Z,18.23
2018-03-28T19:22:33.433Z,21.23
2018-03-28T19:25:01.543Z,19.67
2018-03-28T19:27:29.260Z,18.70
2018-03-28T19:29:56.929Z,13.77
2018-03-28T19:32:25.112Z,14.05
2018-03-28T19:34:53.339Z,14.43
2018-03-28T19:37:21.154Z,15.32
2018-03-28T19:39:48.933Z,15.00
2018-03-28T19:42:17.140Z,13.93
2018-03-28T19:44:44.955Z,12.90
2018-03-28T19:47:12.724Z,12.52
2018-03-28T19:49:40.518Z,11.63
2018-03-28T19:52:08.269Z,12.48
2018-03-28T19:54:52.705Z,14.43
2018-03-28T19:57:20.450Z,16.48
2018-03-28T19:59:48.250Z,15.55
2018-03-28T20:02:16.055Z,15.02
2018-03-28T20:04:43.814Z,15.73
2018-03-28T20:07:11.548Z,16.80
2018-03-28T20:09:39.692Z,18.55
2018-03-28T20:12:07.526Z,19.15
2018-03-28T20:14:35.291Z,17.87
2018-03-28T20:17:03.006Z,18.60
2018-03-28T20:19:30.756Z,17.62
2018-03-28T20:21:58.511Z,19.40
2018-03-28T20:24:26.296Z,18.67
2018-03-28T20:26:54.458Z,20.50
2018-03-28T20:29:22.236Z,21.58
2018-03-28T20:31:50.486Z,21.55
2018-03-28T20:34:18.348Z,22.87
2018-03-28T20:36:49.235Z,21.65
2018-03-28T20:39:17.455Z,21.25
2018-03-28T20:41:45.248Z,24.92
2018-03-28T20:44:13.050Z,24.37
2018-03-28T20:46:40.798Z,22.23
2018-03-28T20:49:08.510Z,20.90
2018-03-28T20:51:36.428Z,20.92
2018-03-28T20:54:04.143Z,21.05
2018-03-28T20:56:32.693Z,20.67
2018-03-28T20:59:00.399Z,22.35
2018-03-28T21:01:28.230Z,21.48
2018-03-28T21:03:56.033Z,23.52
2018-03-28T21:06:23.782Z,23.05
2018-03-28T21:08:51.510Z,24.10
2018-03-28T21:11:19.659Z,21.87
2018-03-28T21:13:47.409Z,25.48
2018-03-28T21:16:15.205Z,24.25
2018-03-28T21:18:43.361Z,23.83
2018-03-28T21:21:11.086Z,22.95
2018-03-28T21:23:38.822Z,23.12
2018-03-28T21:26:06.635Z,24.87
2018-03-28T21:28:34.446Z,21.52
2018-03-28T21:31:02.144Z,20.70
2018-03-28T21:33:29.869Z,21.73
2018-03-28T21:35:58.065Z,22.35
2018-03-28T21:38:25.795Z,19.30
2018-03-28T21:40:53.551Z,18.92
2018-03-28T21:43:21.292Z,17.17
2018-03-28T21:45:49.074Z,17.10
2018-03-28T21:48:16.771Z,17.37
2018-03-28T21:50:44.509Z,18.60
2018-03-28T21:53:12.263Z,16.48
2018-03-28T21:55:40.010Z,17.98
2018-03-28T21:58:07.804Z,15.98
2018-03-28T22:00:35.540Z,17.23
2018-03-28T22:03:04.175Z,15.13
2018-03-28T22:05:32.508Z,15.73
2018-03-28T22:08:00.257Z,16.00
2018-03-28T22:10:27.973Z,17.17
2018-03-28T22:12:56.115Z,15.10
2018-03-28T22:15:23.835Z,16.27
2018-03-28T22:17:51.599Z,17.20
2018-03-28T22:20:19.306Z,16.23
2018-03-28T22:22:47.073Z,15.90
2018-03-28T22:25:14.852Z,13.80
2018-03-28T22:27:42.679Z,12.90
2018-03-28T22:30:10.424Z,12.50
2018-03-28T22:32:38.151Z,13.38
2018-03-28T22:35:05.875Z,12.60
2018-03-28T22:37:33.600Z,14.30
2018-03-28T22:40:01.714Z,14.60
2018-03-28T22:42:29.422Z,16.70
2018-03-28T22:44:57.158Z,18.23
2018-03-28T22:47:24.898Z,16.08
2018-03-28T22:49:52.706Z,14.32
2018-03-28T22:52:20.404Z,13.73
2018-03-28T22:54:48.149Z,13.43
2018-03-28T22:57:16.304Z,14.57
2018-03-28T22:59:44.048Z,14.93
2018-03-28T23:02:11.785Z,14.90
2018-03-28T23:04:39.551Z,17.55
2018-03-28T23:07:07.326Z,20.58
2018-03-28T23:09:35.078Z,19.77
2018-03-28T23:12:02.913Z,20.05
2018-03-28T23:14:30.627Z,19.75
2018-03-28T23:16:58.403Z,21.87
2018-03-28T23:19:26.156Z,21.92
2018-03-28T23:21:53.954Z,20.98
2018-03-28T23:24:21.710Z,18.83
2018-03-28T23:26:49.439Z,18.50
2018-03-28T23:29:17.193Z,18.45
2018-03-28T23:31:44.932Z,16.08
2018-03-28T23:34:13.075Z,16.58
2018-03-28T23:36:40.818Z,13.65
2018-03-28T23:39:08.526Z,15.02
2018-03-28T23:41:36.301Z,14.02
2018-03-28T23:44:04.004Z,12.35
2018-03-28T23:46:31.776Z,14.32
2018-03-28T23:48:59.550Z,13.07
2018-03-28T23:51:27.298Z,13.55
2018-03-28T23:53:54.978Z,12.35
2018-03-28T23:56:22.971Z,12.77
2018-03-28T23:58:50.739Z,12.35
